createdAt,value
2017-10-30T00:00:36.396Z,100727.04
2017-10-30T00:03:05.593Z,100730.62
2017-10-30T00:05:34.915Z,100728.69
2017-10-30T00:08:04.178Z,100726.52
2017-10-30T00:10:33.396Z,100732.53
2017-10-30T00:13:02.633Z,100730.48
2017-10-30T00:15:32.835Z,100745.10
2017-10-30T00:18:02.070Z,100744.77
2017-10-30T00:20:31.265Z,100754.84
2017-10-30T00:23:01.352Z,100757.95
2017-10-30T00:25:31.319Z,100758.28
2017-10-30T00:28:00.564Z,100769.75
2017-10-30T00:30:30.560Z,100767.52
2017-10-30T00:33:01.284Z,100762.22
2017-10-30T00:35:30.488Z,100763.97
2017-10-30T00:37:59.707Z,100765.25
2017-10-30T00:40:29.703Z,100770.00
2017-10-30T00:42:58.980Z,100764.03
2017-10-30T00:45:28.149Z,100775.58
2017-10-30T00:47:57.371Z,100783.22
2017-10-30T00:50:26.664Z,100770.16
2017-10-30T00:52:55.864Z,100770.81
2017-10-30T00:55:25.161Z,100769.95
2017-10-30T00:57:54.363Z,100769.19
2017-10-30T01:00:23.591Z,100775.91
2017-10-30T01:02:54.326Z,100774.45
2017-10-30T01:05:24.303Z,100780.55
2017-10-30T01:07:53.527Z,100777.45
2017-10-30T01:10:22.735Z,100773.28
2017-10-30T01:12:53.463Z,100777.48
2017-10-30T01:15:22.738Z,100777.05
2017-10-30T01:17:52.180Z,100773.69
2017-10-30T01:20:21.389Z,100774.97
2017-10-30T01:22:51.375Z,100780.81
2017-10-30T01:25:20.592Z,100781.11
2017-10-30T01:27:51.312Z,100782.75
2017-10-30T01:30:20.501Z,100786.37
2017-10-30T01:32:49.732Z,100782.53
2017-10-30T01:35:19.724Z,100789.44
2017-10-30T01:37:48.963Z,100787.69
2017-10-30T01:40:18.194Z,100786.25
2017-10-30T01:42:47.404Z,100782.78
2017-10-30T01:45:16.620Z,100786.44
2017-10-30T01:47:47.535Z,100782.64
2017-10-30T01:50:16.743Z,100787.64
2017-10-30T01:52:45.930Z,100785.20
2017-10-30T01:55:15.197Z,100787.50
2017-10-30T01:57:44.486Z,100792.79
2017-10-30T02:00:13.715Z,100787.72
2017-10-30T02:02:42.916Z,100789.22
2017-10-30T02:05:13.048Z,100787.90
2017-10-30T02:07:42.263Z,100791.66
2017-10-30T02:10:11.549Z,100793.89
2017-10-30T02:12:40.776Z,100789.14
2017-10-30T02:15:10.751Z,100787.50
2017-10-30T02:17:40.009Z,100783.19
2017-10-30T02:20:09.264Z,100785.75
2017-10-30T02:22:38.465Z,100786.52
2017-10-30T02:25:07.679Z,100789.44
2017-10-30T02:27:37.638Z,100791.48
2017-10-30T02:30:06.953Z,100790.56
2017-10-30T02:32:36.159Z,100796.58
2017-10-30T02:35:05.451Z,100789.98
2017-10-30T02:37:34.672Z,100796.15
2017-10-30T02:40:05.390Z,100803.08
2017-10-30T02:42:34.583Z,100805.61
2017-10-30T02:45:03.796Z,100805.67
2017-10-30T02:47:32.989Z,100811.81
2017-10-30T02:50:02.229Z,100806.13
2017-10-30T02:52:31.423Z,100811.53
2017-10-30T02:55:01.408Z,100809.20
2017-10-30T02:57:31.534Z,100814.46
2017-10-30T03:00:00.774Z,100816.07
2017-10-30T03:02:29.960Z,100817.77
2017-10-30T03:04:59.255Z,100822.13
2017-10-30T03:07:28.464Z,100820.20
2017-10-30T03:09:57.688Z,100824.31
2017-10-30T03:12:26.965Z,100833.39
2017-10-30T03:14:56.220Z,100833.69
2017-10-30T03:17:26.174Z,100838.45
2017-10-30T03:19:55.449Z,100835.35
2017-10-30T03:22:25.407Z,100847.09
2017-10-30T03:24:54.611Z,100853.16
2017-10-30T03:27:24.011Z,100851.41
2017-10-30T03:29:53.297Z,100852.84
2017-10-30T03:32:22.471Z,100855.15
2017-10-30T03:34:52.455Z,100856.12
2017-10-30T03:37:22.450Z,100868.70
2017-10-30T03:39:51.668Z,100864.66
2017-10-30T03:42:20.915Z,100873.47
2017-10-30T03:44:50.122Z,100874.30
2017-10-30T03:47:19.300Z,100875.78
2017-10-30T03:49:48.714Z,100879.12
2017-10-30T03:52:17.929Z,100886.84
2017-10-30T03:54:47.144Z,100886.70
2017-10-30T03:57:16.366Z,100893.88
2017-10-30T03:59:46.335Z,100887.42
2017-10-30T04:02:15.531Z,100889.97
2017-10-30T04:04:44.934Z,100886.47
2017-10-30T04:07:14.108Z,100890.64
2017-10-30T04:09:43.349Z,100888.08
2017-10-30T04:12:12.570Z,100897.67
2017-10-30T04:14:41.759Z,100889.14
2017-10-30T04:17:12.497Z,100893.88
2017-10-30T04:19:41.712Z,100895.92
2017-10-30T04:22:11.802Z,100897.27
2017-10-30T04:24:41.115Z,100906.77
2017-10-30T04:27:11.105Z,100911.75
2017-10-30T04:29:40.304Z,100909.47
2017-10-30T04:32:09.520Z,100914.91
2017-10-30T04:34:38.776Z,100917.72
2017-10-30T04:37:07.996Z,100919.34
2017-10-30T04:39:37.199Z,100927.16
2017-10-30T04:42:06.536Z,100923.91
2017-10-30T04:44:35.760Z,100925.27
2017-10-30T04:47:04.979Z,100919.06
2017-10-30T04:49:34.272Z,100926.35
2017-10-30T04:52:03.463Z,100925.27
2017-10-30T04:54:32.677Z,100929.16
2017-10-30T04:57:02.807Z,100936.31
2017-10-30T04:59:32.035Z,100938.31
2017-10-30T05:02:01.997Z,100945.87
2017-10-30T05:04:31.221Z,100939.11
2017-10-30T05:07:00.591Z,100937.61
2017-10-30T05:09:29.804Z,100939.23
2017-10-30T05:11:59.075Z,100939.06
2017-10-30T05:14:28.312Z,100938.11
2017-10-30T05:16:57.500Z,100940.94
2017-10-30T05:19:26.755Z,100944.59
2017-10-30T05:21:55.951Z,100944.56
2017-10-30T05:24:25.322Z,100948.59
2017-10-30T05:26:56.126Z,100945.25
2017-10-30T05:29:25.316Z,100954.70
2017-10-30T05:31:54.533Z,100956.19
2017-10-30T05:34:23.805Z,100956.59
2017-10-30T05:36:53.227Z,100956.45
2017-10-30T05:39:22.422Z,100956.67
2017-10-30T05:41:51.771Z,100951.56
2017-10-30T05:44:21.732Z,100958.59
2017-10-30T05:46:51.155Z,100964.66
2017-10-30T05:49:20.461Z,100968.73
2017-10-30T05:51:49.676Z,100967.78
2017-10-30T05:54:19.636Z,100964.23
2017-10-30T05:56:48.915Z,100977.17
2017-10-30T05:59:18.136Z,100977.60
2017-10-30T06:01:47.365Z,100972.59
2017-10-30T06:04:16.585Z,100967.48
2017-10-30T06:06:46.555Z,100979.90
2017-10-30T06:09:16.575Z,100981.12
2017-10-30T06:11:45.767Z,100981.94
2017-10-30T06:14:15.004Z,100981.15
2017-10-30T06:16:44.189Z,100989.80
2017-10-30T06:19:13.413Z,100996.01
2017-10-30T06:21:43.374Z,101006.36
2017-10-30T06:24:12.591Z,101014.36
2017-10-30T06:26:41.791Z,101013.00
2017-10-30T06:29:11.024Z,101008.84
2017-10-30T06:31:40.967Z,101013.66
2017-10-30T06:34:10.195Z,101005.61
2017-10-30T06:36:39.415Z,101009.25
2017-10-30T06:39:09.446Z,101015.70
2017-10-30T06:41:39.427Z,101017.44
2017-10-30T06:44:08.639Z,101021.89
2017-10-30T06:46:37.860Z,101023.52
2017-10-30T06:49:07.803Z,101036.09
2017-10-30T06:51:37.005Z,101039.86
2017-10-30T06:54:06.219Z,101036.73
2017-10-30T06:56:35.432Z,101045.11
2017-10-30T06:59:04.658Z,101040.94
2017-10-30T07:01:34.648Z,101046.44
2017-10-30T07:04:03.874Z,101047.94
2017-10-30T07:06:33.843Z,101048.60
2017-10-30T07:09:03.100Z,101056.60
2017-10-30T07:11:32.294Z,101058.48
2017-10-30T07:14:02.271Z,101057.95
2017-10-30T07:16:31.689Z,101058.03
2017-10-30T07:19:00.947Z,101059.25
2017-10-30T07:21:30.148Z,101068.45
2017-10-30T07:23:59.417Z,101070.11
2017-10-30T07:26:28.603Z,101073.36
2017-10-30T07:28:57.827Z,101077.37
2017-10-30T07:31:27.128Z,101085.52
2017-10-30T07:33:56.356Z,101088.19
2017-10-30T07:36:25.571Z,101087.63
2017-10-30T07:38:54.823Z,101092.84
2017-10-30T07:41:24.023Z,101095.38
2017-10-30T07:43:53.240Z,101096.45
2017-10-30T07:46:22.520Z,101108.37
2017-10-30T07:48:51.732Z,101105.01
2017-10-30T07:51:20.969Z,101108.88
2017-10-30T07:53:50.262Z,101112.17
2017-10-30T07:56:20.240Z,101109.68
2017-10-30T07:58:49.437Z,101112.38
2017-10-30T08:01:18.644Z,101110.72
2017-10-30T08:03:47.841Z,101117.34
2017-10-30T08:06:17.127Z,101121.09
2017-10-30T08:08:46.323Z,101125.79
2017-10-30T08:11:15.695Z,101113.59
2017-10-30T08:13:44.906Z,101121.92
2017-10-30T08:16:14.108Z,101134.41
2017-10-30T08:18:43.339Z,101134.41
2017-10-30T08:21:12.548Z,101143.41
2017-10-30T08:23:41.754Z,101141.72
2017-10-30T08:26:11.720Z,101137.78
2017-10-30T08:28:40.939Z,101136.46
2017-10-30T08:31:10.135Z,101140.29
2017-10-30T08:33:39.597Z,101142.19
2017-10-30T08:36:08.794Z,101138.72
2017-10-30T08:38:38.016Z,101143.25
2017-10-30T08:41:07.196Z,101152.56
2017-10-30T08:43:36.417Z,101154.72
2017-10-30T08:46:05.595Z,101150.89
2017-10-30T08:48:34.775Z,101146.91
2017-10-30T08:51:04.004Z,101148.23
2017-10-30T08:53:33.259Z,101160.59
2017-10-30T08:56:02.472Z,101160.44
2017-10-30T08:58:31.671Z,101166.95
2017-10-30T09:01:00.884Z,101169.14
2017-10-30T09:03:30.073Z,101172.75
2017-10-30T09:05:59.369Z,101173.27
2017-10-30T09:08:28.597Z,101170.50
2017-10-30T09:10:57.809Z,101163.16
2017-10-30T09:13:27.047Z,101171.14
2017-10-30T09:15:57.056Z,101175.75
2017-10-30T09:18:27.099Z,101189.41
2017-10-30T09:20:56.300Z,101198.82
2017-10-30T09:23:25.591Z,101187.68
2017-10-30T09:25:54.768Z,101194.02
2017-10-30T09:28:24.770Z,101199.19
2017-10-30T09:30:53.940Z,101194.86
2017-10-30T09:33:23.131Z,101192.05
2017-10-30T09:35:52.320Z,101187.61
2017-10-30T09:38:21.600Z,101193.79
2017-10-30T09:40:51.529Z,101193.99
2017-10-30T09:43:20.814Z,101188.32
2017-10-30T09:45:49.989Z,101194.52
2017-10-30T09:48:19.965Z,101199.73
2017-10-30T09:50:49.282Z,101200.45
2017-10-30T09:53:19.487Z,101200.14
2017-10-30T09:55:48.692Z,101206.83
2017-10-30T09:58:17.880Z,101209.14
2017-10-30T10:00:48.940Z,101209.63
2017-10-30T10:03:18.896Z,101209.20
2017-10-30T10:05:48.115Z,101207.72
2017-10-30T10:08:17.389Z,101207.84
2017-10-30T10:10:46.675Z,101211.66
2017-10-30T10:13:15.863Z,101217.64
2017-10-30T10:15:45.180Z,101214.78
2017-10-30T10:18:14.395Z,101212.93
2017-10-30T10:20:43.598Z,101219.27
2017-10-30T10:23:12.820Z,101219.06
2017-10-30T10:25:42.042Z,101222.12
2017-10-30T10:28:12.036Z,101221.77
2017-10-30T10:30:41.267Z,101221.62
2017-10-30T10:33:11.274Z,101231.88
2017-10-30T10:35:41.227Z,101229.92
2017-10-30T10:38:11.279Z,101226.55
2017-10-30T10:40:40.489Z,101227.20
2017-10-30T10:43:09.700Z,101225.59
2017-10-30T10:45:39.676Z,101235.80
2017-10-30T10:48:09.097Z,101232.48
2017-10-30T10:50:38.302Z,101231.15
2017-10-30T10:53:07.503Z,101229.39
2017-10-30T10:55:37.576Z,101237.94
2017-10-30T10:58:06.905Z,101242.67
2017-10-30T11:00:36.139Z,101250.26
2017-10-30T11:03:06.120Z,101243.50
2017-10-30T11:05:36.832Z,101244.30
2017-10-30T11:08:06.073Z,101246.27
2017-10-30T11:10:35.296Z,101240.98
2017-10-30T11:13:04.533Z,101245.62
2017-10-30T11:15:33.765Z,101242.44
2017-10-30T11:18:03.752Z,101241.02
2017-10-30T11:20:32.971Z,101238.02
2017-10-30T11:23:02.963Z,101233.73
2017-10-30T11:25:32.208Z,101240.97
2017-10-30T11:28:02.179Z,101240.97
2017-10-30T11:30:31.459Z,101242.44
2017-10-30T11:33:00.754Z,101242.75
2017-10-30T11:35:29.972Z,101247.48
2017-10-30T11:37:59.188Z,101245.72
2017-10-30T11:40:30.278Z,101250.58
2017-10-30T11:43:00.239Z,101246.67
2017-10-30T11:45:30.999Z,101244.14
2017-10-30T11:48:00.995Z,101241.44
2017-10-30T11:50:30.198Z,101246.33
2017-10-30T11:53:00.215Z,101236.66
2017-10-30T11:55:30.218Z,101240.87
2017-10-30T11:57:59.447Z,101244.13
2017-10-30T12:00:29.408Z,101240.80
2017-10-30T12:02:58.616Z,101237.70
2017-10-30T12:05:27.821Z,101243.95
2017-10-30T12:07:57.051Z,101248.62
2017-10-30T12:10:27.027Z,101244.88
2017-10-30T12:12:56.312Z,101245.33
2017-10-30T12:15:25.536Z,101257.41
2017-10-30T12:17:56.481Z,101255.12
2017-10-30T12:20:26.564Z,101256.70
2017-10-30T12:22:55.771Z,101262.67
2017-10-30T12:25:25.099Z,101253.55
2017-10-30T12:27:55.068Z,101255.98
2017-10-30T12:30:24.299Z,101253.13
2017-10-30T12:32:55.011Z,101253.61
2017-10-30T12:35:24.239Z,101262.41
2017-10-30T12:37:53.461Z,101250.19
2017-10-30T12:40:23.509Z,101263.75
2017-10-30T12:42:52.804Z,101268.23
2017-10-30T12:45:22.147Z,101266.47
2017-10-30T12:47:51.327Z,101264.20
2017-10-30T12:50:20.512Z,101265.99
2017-10-30T12:52:49.717Z,101262.85
2017-10-30T12:55:18.945Z,101267.86
2017-10-30T12:57:48.183Z,101267.70
2017-10-30T13:00:17.371Z,101259.17
2017-10-30T13:02:46.599Z,101264.63
2017-10-30T13:05:15.807Z,101267.14
2017-10-30T13:07:45.058Z,101269.18
2017-10-30T13:10:15.015Z,101268.64
2017-10-30T13:12:44.235Z,101278.63
2017-10-30T13:15:13.484Z,101273.42
2017-10-30T13:17:42.705Z,101271.95
2017-10-30T13:20:11.915Z,101274.59
2017-10-30T13:22:41.323Z,101279.00
2017-10-30T13:25:10.527Z,101278.95
2017-10-30T13:27:40.543Z,101283.89
2017-10-30T13:30:11.267Z,101281.59
2017-10-30T13:32:41.994Z,101288.58
2017-10-30T13:35:11.241Z,101287.91
2017-10-30T13:37:40.436Z,101285.03
2017-10-30T13:40:10.419Z,101296.42
2017-10-30T13:42:41.119Z,101292.06
2017-10-30T13:45:10.356Z,101283.86
2017-10-30T13:47:39.562Z,101279.28
2017-10-30T13:50:09.571Z,101271.31
2017-10-30T13:52:39.667Z,101269.74
2017-10-30T13:55:08.904Z,101272.92
2017-10-30T13:57:38.929Z,101270.28
2017-10-30T14:00:08.122Z,101269.45
2017-10-30T14:02:37.353Z,101268.08
2017-10-30T14:05:06.574Z,101274.72
2017-10-30T14:07:35.792Z,101279.41
2017-10-30T14:10:05.788Z,101276.73
2017-10-30T14:12:35.152Z,101282.45
2017-10-30T14:15:04.388Z,101273.11
2017-10-30T14:17:33.915Z,101281.44
2017-10-30T14:20:04.007Z,101286.00
2017-10-30T14:22:33.259Z,101283.73
2017-10-30T14:25:02.483Z,101287.52
2017-10-30T14:27:31.695Z,101286.45
2017-10-30T14:30:00.928Z,101285.40
2017-10-30T14:32:30.103Z,101290.73
2017-10-30T14:34:59.352Z,101295.04
2017-10-30T14:37:28.555Z,101289.90
2017-10-30T14:39:57.791Z,101289.30
2017-10-30T14:42:27.020Z,101290.81
2017-10-30T14:44:56.301Z,101294.19
2017-10-30T14:47:25.515Z,101289.86
2017-10-30T14:49:55.520Z,101284.36
2017-10-30T14:52:24.734Z,101285.59
2017-10-30T14:54:54.716Z,101293.32
2017-10-30T14:57:23.983Z,101293.73
2017-10-30T14:59:53.264Z,101281.91
2017-10-30T15:02:23.267Z,101289.56
2017-10-30T15:04:52.472Z,101291.75
2017-10-30T15:07:21.790Z,101297.80
2017-10-30T15:09:51.049Z,101300.17
2017-10-30T15:12:21.084Z,101299.21
2017-10-30T15:14:50.316Z,101302.30
2017-10-30T15:17:19.544Z,101310.90
2017-10-30T15:19:49.752Z,101303.42
2017-10-30T15:22:19.115Z,101304.83
2017-10-30T15:24:48.324Z,101300.31
2017-10-30T15:27:17.577Z,101301.14
2017-10-30T15:29:46.826Z,101291.41
2017-10-30T15:32:16.063Z,101289.78
2017-10-30T15:34:45.424Z,101295.70
2017-10-30T15:37:14.662Z,101295.40
2017-10-30T15:39:43.853Z,101301.17
2017-10-30T15:42:13.071Z,101299.93
2017-10-30T15:44:43.169Z,101302.55
2017-10-30T15:47:12.369Z,101310.06
2017-10-30T15:49:41.600Z,101316.64
2017-10-30T15:52:11.560Z,101316.11
2017-10-30T15:54:40.948Z,101310.16
2017-10-30T15:57:10.186Z,101307.39
2017-10-30T15:59:39.432Z,101312.44
2017-10-30T16:02:08.641Z,101312.59
2017-10-30T16:04:37.977Z,101315.22
2017-10-30T16:07:07.216Z,101313.25
2017-10-30T16:09:36.467Z,101305.75
2017-10-30T16:12:07.200Z,101307.70
2017-10-30T16:14:36.419Z,101313.84
2017-10-30T16:17:06.402Z,101311.89
2017-10-30T16:19:35.610Z,101314.66
2017-10-30T16:22:04.835Z,101319.19
2017-10-30T16:24:34.812Z,101316.28
2017-10-30T16:27:04.041Z,101319.34
2017-10-30T16:29:34.016Z,101326.80
2017-10-30T16:32:03.249Z,101324.16
2017-10-30T16:34:32.533Z,101329.34
2017-10-30T16:37:01.771Z,101330.35
2017-10-30T16:39:31.080Z,101336.09
2017-10-30T16:42:01.039Z,101333.71
2017-10-30T16:44:30.267Z,101336.48
2017-10-30T16:46:59.596Z,101340.82
2017-10-30T16:49:28.832Z,101343.16
2017-10-30T16:51:58.056Z,101347.34
2017-10-30T16:54:27.299Z,101343.42
2017-10-30T16:56:56.884Z,101347.35
2017-10-30T16:59:26.115Z,101348.02
2017-10-30T17:01:55.334Z,101339.20
2017-10-30T17:04:24.567Z,101340.20
2017-10-30T17:06:53.797Z,101348.66
2017-10-30T17:09:23.021Z,101348.36
2017-10-30T17:11:52.253Z,101345.03
2017-10-30T17:14:21.480Z,101344.56
2017-10-30T17:16:51.426Z,101345.78
2017-10-30T17:19:20.661Z,101350.56
2017-10-30T17:21:49.923Z,101340.70
2017-10-30T17:24:19.099Z,101339.98
2017-10-30T17:26:48.328Z,101343.28
2017-10-30T17:29:17.548Z,101348.13
2017-10-30T17:31:46.845Z,101344.28
2017-10-30T17:34:16.028Z,101350.06
2017-10-30T17:36:45.275Z,101359.92
2017-10-30T17:39:15.255Z,101356.72
2017-10-30T17:41:45.436Z,101357.59
2017-10-30T17:44:14.854Z,101361.98
2017-10-30T17:46:44.124Z,101362.03
2017-10-30T17:49:13.332Z,101371.31
2017-10-30T17:51:42.644Z,101365.80
2017-10-30T17:54:11.856Z,101368.84
2017-10-30T17:56:41.131Z,101368.22
2017-10-30T17:59:10.432Z,101370.73
2017-10-30T18:01:39.680Z,101372.12
2017-10-30T18:04:09.182Z,101374.98
2017-10-30T18:06:39.331Z,101371.22
2017-10-30T18:09:08.589Z,101373.28
2017-10-30T18:11:37.825Z,101381.97
2017-10-30T18:14:07.760Z,101377.22
2017-10-30T18:16:37.309Z,101377.06
2017-10-30T18:19:06.525Z,101378.84
2017-10-30T18:21:36.507Z,101382.13
2017-10-30T18:24:05.747Z,101384.56
2017-10-30T18:26:35.808Z,101382.95
2017-10-30T18:29:05.153Z,101376.31
2017-10-30T18:31:35.136Z,101386.18
2017-10-30T18:34:04.359Z,101386.87
2017-10-30T18:36:35.103Z,101389.85
2017-10-30T18:39:05.153Z,101386.87
2017-10-30T18:41:35.240Z,101384.97
2017-10-30T18:44:04.421Z,101397.28
2017-10-30T18:46:33.672Z,101395.25
2017-10-30T18:49:02.897Z,101392.95
2017-10-30T18:51:32.166Z,101392.42
2017-10-30T18:54:01.437Z,101400.81
2017-10-30T18:56:30.688Z,101397.56
2017-10-30T18:58:59.952Z,101397.59
2017-10-30T19:01:29.169Z,101400.95
2017-10-30T19:03:58.561Z,101395.54
2017-10-30T19:06:27.779Z,101397.31
2017-10-30T19:08:57.016Z,101399.63
2017-10-30T19:11:26.989Z,101401.52
2017-10-30T19:13:56.234Z,101398.94
2017-10-30T19:16:27.142Z,101402.45
2017-10-30T19:18:56.392Z,101404.50
2017-10-30T19:21:25.599Z,101400.72
2017-10-30T19:23:54.885Z,101404.23
2017-10-30T19:26:24.083Z,101405.84
2017-10-30T19:28:53.333Z,101399.23
2017-10-30T19:31:22.598Z,101405.70
2017-10-30T19:33:51.782Z,101401.10
2017-10-30T19:36:21.130Z,101406.78
2017-10-30T19:38:50.316Z,101399.87
2017-10-30T19:41:19.528Z,101404.48
2017-10-30T19:46:24.166Z,101402.84
2017-10-30T19:48:53.426Z,101406.90
2017-10-30T19:51:22.673Z,101402.59
2017-10-30T19:53:51.918Z,101407.31
2017-10-30T19:56:21.228Z,101406.52
2017-10-30T19:58:50.420Z,101414.19
2017-10-30T20:01:19.645Z,101410.81
2017-10-30T20:03:48.928Z,101409.32
2017-10-30T20:19:42.647Z,101417.84
2017-10-30T20:22:12.904Z,101419.59
2017-10-30T20:24:42.145Z,101428.23
2017-10-30T20:27:12.116Z,101430.41
2017-10-30T20:29:41.344Z,101432.27
2017-10-30T20:32:10.579Z,101432.00
2017-10-30T20:34:40.767Z,101426.62
2017-10-30T20:37:09.979Z,101430.13
2017-10-30T20:39:40.004Z,101435.80
2017-10-30T20:42:10.007Z,101430.54
2017-10-30T20:44:40.719Z,101433.24
2017-10-30T20:47:09.928Z,101434.30
2017-10-30T20:49:39.287Z,101437.27
2017-10-30T20:52:08.517Z,101442.54
2017-10-30T20:54:37.799Z,101448.33
2017-10-30T20:57:07.232Z,101444.28
2017-10-30T20:59:37.223Z,101445.90
2017-10-30T21:02:06.546Z,101455.06
2017-10-30T21:04:35.800Z,101454.36
2017-10-30T21:07:05.114Z,101454.47
2017-10-30T21:09:34.337Z,101451.37
2017-10-30T21:12:04.459Z,101457.41
2017-10-30T21:14:33.709Z,101457.38
2017-10-30T21:17:02.966Z,101450.50
2017-10-30T21:19:33.679Z,101449.55
2017-10-30T21:22:02.980Z,101448.74
2017-10-30T21:24:32.351Z,101441.45
2017-10-30T21:27:01.575Z,101447.13
2017-10-30T21:29:30.982Z,101452.22
2017-10-30T21:32:00.216Z,101443.58
2017-10-30T21:34:30.302Z,101448.98
2017-10-30T21:37:01.016Z,101441.42
2017-10-30T21:39:30.266Z,101439.91
2017-10-30T21:42:00.228Z,101436.53
2017-10-30T21:44:29.464Z,101431.41
2017-10-30T21:46:59.450Z,101426.24
2017-10-30T21:49:28.685Z,101435.66
2017-10-30T21:51:58.684Z,101431.84
2017-10-30T21:54:28.687Z,101433.86
2017-10-30T21:56:57.974Z,101440.87
2017-10-30T21:59:27.186Z,101437.33
2017-10-30T22:01:56.435Z,101434.49
2017-10-30T22:04:25.666Z,101438.91
2017-10-30T22:06:55.040Z,101434.83
2017-10-30T22:09:24.244Z,101430.64
2017-10-30T22:11:53.511Z,101446.42
2017-10-30T22:14:22.730Z,101441.43
2017-10-30T22:16:51.929Z,101440.76
2017-10-30T22:19:21.214Z,101440.35
2017-10-30T22:21:50.434Z,101444.25
2017-10-30T22:24:19.643Z,101446.28
2017-10-30T22:26:48.904Z,101443.98
2017-10-30T22:29:19.076Z,101442.59
2017-10-30T22:31:48.288Z,101447.49
2017-10-30T22:34:17.562Z,101446.82
2017-10-30T22:36:46.837Z,101448.58
2017-10-30T22:39:16.063Z,101446.97
2017-10-30T22:41:45.316Z,101448.08
2017-10-30T22:44:15.281Z,101439.05
2017-10-30T22:46:44.493Z,101431.53
2017-10-30T22:49:15.241Z,101435.75
2017-10-30T22:51:45.220Z,101444.56
2017-10-30T22:54:14.450Z,101440.72
2017-10-30T22:56:44.675Z,101436.56
2017-10-30T22:59:14.656Z,101440.08
2017-10-30T23:01:43.869Z,101438.89
2017-10-30T23:04:14.775Z,101442.02
2017-10-30T23:06:44.048Z,101441.64
2017-10-30T23:09:13.324Z,101438.83
2017-10-30T23:11:42.536Z,101438.16
2017-10-30T23:14:12.507Z,101433.59
2017-10-30T23:16:41.732Z,101431.71
2017-10-30T23:19:12.157Z,101429.02
2017-10-30T23:21:42.168Z,101429.84
2017-10-30T23:24:11.549Z,101427.16
2017-10-30T23:26:40.756Z,101421.34
2017-10-30T23:29:09.993Z,101428.24
2017-10-30T23:31:39.335Z,101425.69
2017-10-30T23:34:08.679Z,101423.92
2017-10-30T23:36:38.668Z,101418.12
2017-10-30T23:39:07.888Z,101419.47
2017-10-30T23:41:37.845Z,101424.73
2017-10-30T23:44:07.275Z,101413.94
2017-10-30T23:46:36.475Z,101413.81
2017-10-30T23:49:05.707Z,101416.50
2017-10-30T23:51:35.715Z,101411.52
2017-10-30T23:54:05.149Z,101411.39
2017-10-30T23:56:34.379Z,101410.30
2017-10-30T23:59:03.653Z,101410.02
